Time;durP1;ratioP1;P1;durP2;ratioP2;P2;SDS_P1;SDS_P2;PMS_P1;PMS_P2;Temp;Humidity;BMP_temperature;BMP_pressure;BME280_temperature;BME280_humidity;BME280_pressure;Samples;Min_cycle;Max_cycle;Signal;HPM_P1;HPM_P2
2022/05/28 00:00:17;;;;;;;2.62;1.80;;;;;;;;;;1777317;80;21068;-76
2022/05/28 00:02:43;;;;;;;1.90;1.57;;;;;;;;;;1754919;79;21025;-77
2022/05/28 00:05:09;;;;;;;1.92;1.67;;;;;;;;;;1764053;79;21071;-76
2022/05/28 00:07:35;;;;;;;2.37;1.60;;;;;;;;;;1755977;79;21003;-76
2022/05/28 00:10:02;;;;;;;2.20;1.80;;;;;;;;;;1758049;79;21068;-76
2022/05/28 00:12:30;;;;;;;2.60;1.80;;;;;;;;;;1780363;77;20992;-75
2022/05/28 00:14:58;;;;;;;2.33;1.70;;;;;;;;;;1745765;79;21056;-76
2022/05/28 00:17:24;;;;;;;2.10;1.72;;;;;;;;;;1742398;79;21013;-76
2022/05/28 00:19:51;;;;;;;2.33;1.70;;;;;;;;;;1715497;82;22092;-76
2022/05/28 00:22:17;;;;;;;2.47;1.62;;;;;;;;;;1710060;84;21037;-76
2022/05/28 00:24:46;;;;;;;2.30;1.62;;;;;;;;;;1678624;85;21034;-77
2022/05/28 00:27:12;;;;;;;2.40;1.80;;;;;;;;;;1703938;82;21064;-75
2022/05/28 00:29:39;;;;;;;4.08;1.67;;;;;;;;;;1693809;85;21104;-76
2022/05/28 00:32:06;;;;;;;2.50;1.57;;;;;;;;;;1716582;83;21124;-76
2022/05/28 00:34:34;;;;;;;2.70;1.77;;;;;;;;;;1722833;83;21045;-75
2022/05/28 00:37:01;;;;;;;3.02;1.50;;;;;;;;;;1705614;83;21061;-75
2022/05/28 00:39:27;;;;;;;2.50;1.80;;;;;;;;;;1694773;83;21124;-76
2022/05/28 00:41:55;;;;;;;3.47;1.87;;;;;;;;;;1696837;83;21051;-76
2022/05/28 00:44:21;;;;;;;2.58;1.70;;;;;;;;;;1694274;83;21057;-76
2022/05/28 00:46:47;;;;;;;2.90;1.90;;;;;;;;;;1699247;83;21552;-76
2022/05/28 00:49:16;;;;;;;2.90;1.87;;;;;;;;;;1714995;83;21343;-76
2022/05/28 00:51:45;;;;;;;1.80;1.52;;;;;;;;;;1714323;83;21054;-76
2022/05/28 00:54:11;;;;;;;2.80;2.00;;;;;;;;;;1722047;83;21050;-76
2022/05/28 00:56:37;;;;;;;1.98;1.60;;;;;;;;;;1686283;83;21085;-77
2022/05/28 00:59:03;;;;;;;2.67;1.72;;;;;;;;;;1721820;83;21116;-76
2022/05/28 01:04:23;;;;;;;2.05;1.70;;;;;;;;;;1677838;79;21181;-75
2022/05/28 01:07:10;;;;;;;2.02;1.80;;;;;;;;;;1660217;85;21036;-77
2022/05/28 01:09:38;;;;;;;3.27;2.00;;;;;;;;;;1648733;86;21122;-77
2022/05/28 01:12:06;;;;;;;3.00;2.02;;;;;;;;;;1651886;86;21088;-76
2022/05/28 01:14:49;;;;;;;3.02;2.10;;;;;;;;;;1658273;86;21062;-77
2022/05/28 01:17:17;;;;;;;3.70;1.98;;;;;;;;;;1648915;86;21115;-76
2022/05/28 01:19:45;;;;;;;3.27;2.00;;;;;;;;;;1648781;87;21130;-77
2022/05/28 01:22:13;;;;;;;3.00;2.05;;;;;;;;;;1652544;86;21535;-75
2022/05/28 01:24:44;;;;;;;2.67;1.90;;;;;;;;;;1662429;86;21559;-76
2022/05/28 01:27:12;;;;;;;2.60;2.10;;;;;;;;;;1662404;86;21091;-77
2022/05/28 01:29:40;;;;;;;3.02;1.82;;;;;;;;;;1652946;85;21547;-77
2022/05/28 01:32:08;;;;;;;2.90;2.20;;;;;;;;;;1650949;86;21092;-76
2022/05/28 01:34:34;;;;;;;3.75;1.90;;;;;;;;;;1654146;86;21088;-76
2022/05/28 01:37:01;;;;;;;3.72;2.00;;;;;;;;;;1662523;86;21057;-76
2022/05/28 01:39:27;;;;;;;2.55;1.95;;;;;;;;;;1654924;86;21107;-76
2022/05/28 01:41:54;;;;;;;3.00;1.90;;;;;;;;;;1661038;85;21111;-75
2022/05/28 01:44:21;;;;;;;4.03;2.10;;;;;;;;;;1650292;86;21130;-75
2022/05/28 01:46:47;;;;;;;3.22;1.95;;;;;;;;;;1653173;85;21608;-75
2022/05/28 01:49:14;;;;;;;3.75;1.90;;;;;;;;;;1662278;85;21075;-75
2022/05/28 01:51:42;;;;;;;2.70;1.80;;;;;;;;;;1662056;85;21559;-75
2022/05/28 01:54:12;;;;;;;2.80;2.00;;;;;;;;;;1662501;85;21087;-75
2022/05/28 01:56:40;;;;;;;2.42;2.00;;;;;;;;;;1662370;86;21096;-75
2022/05/28 01:59:06;;;;;;;3.45;1.90;;;;;;;;;;1653756;85;21648;-75
2022/05/28 02:01:33;;;;;;;4.67;2.00;;;;;;;;;;1654668;86;21094;-76
2022/05/28 02:04:01;;;;;;;3.33;1.92;;;;;;;;;;1655318;86;21069;-75
2022/05/28 02:06:28;;;;;;;2.60;1.77;;;;;;;;;;1671751;85;20988;-75
2022/05/28 02:08:55;;;;;;;3.25;2.20;;;;;;;;;;1684534;85;21003;-76
2022/05/28 02:11:25;;;;;;;2.55;2.05;;;;;;;;;;1684598;83;20987;-75
2022/05/28 02:13:55;;;;;;;3.12;2.20;;;;;;;;;;1683875;83;21066;-75
2022/05/28 02:16:27;;;;;;;2.33;1.95;;;;;;;;;;1684485;83;21090;-74
2022/05/28 02:18:56;;;;;;;2.83;2.10;;;;;;;;;;1684845;82;20952;-76
2022/05/28 02:21:27;;;;;;;2.67;1.90;;;;;;;;;;1684744;82;21042;-74
2022/05/28 02:24:04;;;;;;;3.98;2.58;;;;;;;;;;1681603;85;21574;-76
2022/05/28 02:26:35;;;;;;;2.85;1.85;;;;;;;;;;1680106;85;21542;-75
2022/05/28 02:29:01;;;;;;;3.20;2.05;;;;;;;;;;1680599;84;21023;-75
2022/05/28 02:31:29;;;;;;;4.03;2.30;;;;;;;;;;1680327;85;21565;-76
2022/05/28 02:33:56;;;;;;;4.90;2.27;;;;;;;;;;1680438;85;21007;-76
2022/05/28 02:36:22;;;;;;;3.27;2.40;;;;;;;;;;1680287;85;21483;-76
2022/05/28 02:38:49;;;;;;;4.87;2.30;;;;;;;;;;1680140;85;21066;-75
2022/05/28 02:41:14;;;;;;;3.22;2.25;;;;;;;;;;1680504;85;21018;-75
2022/05/28 02:43:42;;;;;;;4.55;2.20;;;;;;;;;;1680171;85;21502;-75
2022/05/28 02:46:08;;;;;;;4.25;3.05;;;;;;;;;;1680383;85;21078;-75
2022/05/28 02:48:35;;;;;;;3.70;2.25;;;;;;;;;;1680041;85;21636;-76
2022/05/28 02:51:02;;;;;;;2.77;2.10;;;;;;;;;;1680360;85;21066;-77
2022/05/28 02:53:28;;;;;;;2.90;2.10;;;;;;;;;;1678529;85;22068;-75
2022/05/28 02:55:54;;;;;;;2.95;2.20;;;;;;;;;;1680160;85;21030;-75
2022/05/28 02:58:20;;;;;;;3.40;2.27;;;;;;;;;;1680420;85;21027;-75
2022/05/28 03:00:46;;;;;;;2.67;2.25;;;;;;;;;;1679944;85;21019;-75
2022/05/28 03:03:19;;;;;;;3.10;2.30;;;;;;;;;;1680179;85;21105;-75
2022/05/28 03:05:41;;;;;;;2.83;2.20;;;;;;;;;;1678723;85;21109;-74
2022/05/28 03:08:08;;;;;;;3.17;2.30;;;;;;;;;;1660317;86;21205;-75
2022/05/28 03:10:35;;;;;;;2.67;2.20;;;;;;;;;;1659770;86;21080;-75
2022/05/28 03:13:02;;;;;;;3.37;2.27;;;;;;;;;;1660503;86;21540;-76
2022/05/28 03:15:28;;;;;;;2.83;2.22;;;;;;;;;;1660497;86;21061;-76
2022/05/28 03:17:56;;;;;;;3.50;2.62;;;;;;;;;;1660408;86;21085;-75
2022/05/28 03:20:22;;;;;;;3.15;2.22;;;;;;;;;;1660413;86;21131;-76
2022/05/28 03:22:48;;;;;;;4.25;2.37;;;;;;;;;;1660308;86;21611;-75
2022/05/28 03:25:16;;;;;;;2.58;2.17;;;;;;;;;;1660255;86;21068;-76
2022/05/28 03:27:42;;;;;;;5.15;2.35;;;;;;;;;;1660436;86;21100;-76
2022/05/28 03:30:09;;;;;;;4.08;2.52;;;;;;;;;;1660358;86;21073;-74
2022/05/28 03:32:35;;;;;;;3.83;2.65;;;;;;;;;;1660408;86;21080;-76
2022/05/28 03:35:01;;;;;;;4.47;2.67;;;;;;;;;;1660315;86;21556;-76
2022/05/28 03:37:27;;;;;;;3.47;2.50;;;;;;;;;;1660687;86;21037;-76
2022/05/28 03:39:53;;;;;;;3.60;2.35;;;;;;;;;;1660538;86;21088;-76
2022/05/28 03:42:20;;;;;;;4.53;2.60;;;;;;;;;;1660103;86;21094;-75
2022/05/28 03:44:46;;;;;;;4.75;2.40;;;;;;;;;;1660506;86;21135;-75
2022/05/28 03:47:13;;;;;;;4.45;2.33;;;;;;;;;;1660434;86;21664;-75
2022/05/28 03:49:39;;;;;;;3.45;2.60;;;;;;;;;;1660487;86;21596;-76
2022/05/28 03:52:06;;;;;;;3.15;2.25;;;;;;;;;;1660333;86;21053;-74
2022/05/28 03:54:32;;;;;;;4.40;2.50;;;;;;;;;;1660431;86;21543;-74
2022/05/28 03:56:59;;;;;;;3.17;2.25;;;;;;;;;;1660578;86;21036;-75
2022/05/28 03:59:25;;;;;;;3.58;2.40;;;;;;;;;;1660489;86;21563;-74
2022/05/28 04:01:53;;;;;;;3.15;2.40;;;;;;;;;;1660343;86;21473;-75
2022/05/28 04:04:20;;;;;;;4.95;2.60;;;;;;;;;;1660496;85;21104;-75
2022/05/28 04:06:46;;;;;;;4.28;2.40;;;;;;;;;;1667622;85;21094;-75
2022/05/28 04:09:12;;;;;;;3.30;2.45;;;;;;;;;;1680460;85;21034;-74
2022/05/28 04:11:39;;;;;;;3.00;2.30;;;;;;;;;;1680270;85;21066;-75
2022/05/28 04:14:05;;;;;;;3.60;2.22;;;;;;;;;;1680477;85;21027;-76
2022/05/28 04:16:32;;;;;;;2.85;2.08;;;;;;;;;;1680507;85;21055;-76
2022/05/28 04:21:37;;;;;;;4.60;2.60;;;;;;;;;;1626146;88;21061;-75
2022/05/28 04:24:04;;;;;;;3.65;2.55;;;;;;;;;;1628478;88;21126;-76
2022/05/28 04:26:30;;;;;;;3.12;2.67;;;;;;;;;;1625635;88;21070;-77
2022/05/28 04:28:57;;;;;;;3.95;2.62;;;;;;;;;;1601229;90;21075;-76
2022/05/28 04:31:22;;;;;;;4.53;3.20;;;;;;;;;;1598414;90;21053;-76
2022/05/28 04:33:48;;;;;;;3.80;2.20;;;;;;;;;;1596332;90;21057;-76
2022/05/28 04:36:14;;;;;;;2.98;2.33;;;;;;;;;;1598299;90;21079;-76
2022/05/28 04:38:41;;;;;;;4.67;2.80;;;;;;;;;;1596199;90;21140;-76
2022/05/28 04:41:07;;;;;;;4.40;3.15;;;;;;;;;;1596396;90;21057;-76
2022/05/28 04:43:34;;;;;;;3.77;2.83;;;;;;;;;;1595975;90;21090;-76
2022/05/28 04:46:00;;;;;;;5.50;2.77;;;;;;;;;;1596198;90;21555;-76
2022/05/28 04:48:27;;;;;;;3.75;2.50;;;;;;;;;;1596216;90;21580;-77
2022/05/28 04:50:53;;;;;;;4.50;2.47;;;;;;;;;;1597238;90;21071;-76
2022/05/28 04:53:19;;;;;;;4.20;2.85;;;;;;;;;;1599302;90;21043;-74
2022/05/28 04:55:46;;;;;;;3.85;2.83;;;;;;;;;;1597515;90;21519;-75
2022/05/28 04:58:12;;;;;;;3.65;3.00;;;;;;;;;;1601079;90;21633;-76
2022/05/28 05:00:39;;;;;;;3.42;2.62;;;;;;;;;;1600699;90;21585;-74
2022/05/28 05:03:06;;;;;;;5.17;2.87;;;;;;;;;;1592976;90;21090;-76
2022/05/28 05:05:32;;;;;;;4.78;2.90;;;;;;;;;;1570017;89;21217;-76
2022/05/28 05:07:59;;;;;;;6.08;3.10;;;;;;;;;;1570228;91;21082;-76
2022/05/28 05:10:26;;;;;;;5.47;2.90;;;;;;;;;;1570490;91;21081;-76
2022/05/28 05:12:52;;;;;;;3.20;2.75;;;;;;;;;;1570032;91;21093;-75
2022/05/28 05:15:19;;;;;;;5.42;3.08;;;;;;;;;;1570255;91;21085;-75
2022/05/28 05:17:47;;;;;;;3.98;2.75;;;;;;;;;;1570066;91;21061;-76
2022/05/28 05:20:13;;;;;;;4.95;2.67;;;;;;;;;;1588154;88;21853;-77
2022/05/28 05:22:39;;;;;;;5.40;3.08;;;;;;;;;;1631881;88;21061;-75
2022/05/28 05:25:06;;;;;;;4.45;2.80;;;;;;;;;;1631789;88;21077;-76
2022/05/28 05:27:33;;;;;;;3.62;2.85;;;;;;;;;;1629295;88;21580;-76
2022/05/28 05:29:59;;;;;;;4.40;2.80;;;;;;;;;;1630324;88;21012;-75
2022/05/28 05:32:25;;;;;;;4.33;3.05;;;;;;;;;;1630200;88;21065;-75
2022/05/28 05:34:51;;;;;;;4.50;2.90;;;;;;;;;;1631486;88;21045;-75
2022/05/28 05:37:17;;;;;;;4.30;2.77;;;;;;;;;;1631799;88;21536;-75
2022/05/28 05:39:45;;;;;;;3.27;2.72;;;;;;;;;;1655502;86;21583;-76
2022/05/28 05:42:11;;;;;;;3.70;3.10;;;;;;;;;;1653448;86;21331;-75
2022/05/28 05:44:38;;;;;;;3.75;3.00;;;;;;;;;;1606635;89;21006;-76
2022/05/28 05:47:05;;;;;;;5.83;2.95;;;;;;;;;;1606790;89;21110;-76
2022/05/28 05:49:32;;;;;;;3.60;2.95;;;;;;;;;;1628871;88;21085;-76
2022/05/28 05:52:00;;;;;;;4.22;3.15;;;;;;;;;;1633693;88;21140;-74
2022/05/28 05:54:26;;;;;;;5.17;2.92;;;;;;;;;;1633911;88;21100;-75
2022/05/28 05:56:52;;;;;;;3.80;2.90;;;;;;;;;;1633835;88;21144;-75
2022/05/28 05:59:19;;;;;;;4.35;3.00;;;;;;;;;;1633443;88;21159;-76
2022/05/28 06:01:46;;;;;;;3.67;2.90;;;;;;;;;;1633898;88;21552;-75
2022/05/28 06:04:12;;;;;;;3.90;2.92;;;;;;;;;;1633597;88;21101;-76
2022/05/28 06:06:39;;;;;;;3.50;2.87;;;;;;;;;;1632652;88;21140;-77
2022/05/28 06:09:07;;;;;;;3.37;2.83;;;;;;;;;;1592954;88;21087;-75
2022/05/28 06:11:33;;;;;;;6.00;3.20;;;;;;;;;;1593349;90;21084;-76
2022/05/28 06:13:59;;;;;;;3.10;2.65;;;;;;;;;;1635707;87;21068;-78
2022/05/28 06:16:26;;;;;;;5.15;3.20;;;;;;;;;;1619263;89;21069;-76
2022/05/28 06:18:53;;;;;;;3.55;2.95;;;;;;;;;;1617256;89;21076;-77
2022/05/28 06:21:19;;;;;;;4.70;3.05;;;;;;;;;;1579792;90;21105;-77
2022/05/28 06:23:45;;;;;;;4.62;2.87;;;;;;;;;;1573033;91;21592;-76
2022/05/28 06:26:11;;;;;;;3.85;3.00;;;;;;;;;;1560074;92;21136;-75
2022/05/28 06:28:38;;;;;;;3.85;3.05;;;;;;;;;;1562402;91;21049;-76
2022/05/28 06:31:05;;;;;;;3.20;2.50;;;;;;;;;;1591807;90;21546;-76
2022/05/28 06:33:31;;;;;;;3.83;2.70;;;;;;;;;;1592968;90;21127;-77
2022/05/28 06:35:58;;;;;;;5.30;2.90;;;;;;;;;;1588429;90;21013;-76
2022/05/28 06:38:25;;;;;;;4.78;3.30;;;;;;;;;;1597835;90;21084;-76
2022/05/28 06:40:51;;;;;;;4.95;3.17;;;;;;;;;;1593790;89;21584;-76
2022/05/28 06:43:17;;;;;;;3.87;2.80;;;;;;;;;;1587772;90;21074;-76
2022/05/28 06:45:45;;;;;;;3.35;2.65;;;;;;;;;;1584533;90;21100;-75
2022/05/28 06:48:11;;;;;;;3.72;2.77;;;;;;;;;;1560177;92;21097;-76
2022/05/28 06:53:24;;;;;;;3.27;2.92;;;;;;;;;;1597820;90;21603;-76
2022/05/28 06:55:51;;;;;;;4.08;2.98;;;;;;;;;;1591210;90;21148;-77
2022/05/28 06:58:17;;;;;;;4.47;2.80;;;;;;;;;;1595078;90;21025;-76
2022/05/28 07:00:45;;;;;;;5.05;2.80;;;;;;;;;;1594480;90;21109;-75
2022/05/28 07:03:12;;;;;;;2.67;2.40;;;;;;;;;;1598017;88;21246;-75
2022/05/28 07:05:40;;;;;;;3.75;2.62;;;;;;;;;;1598020;90;21091;-77
2022/05/28 07:08:06;;;;;;;4.92;2.60;;;;;;;;;;1598150;90;21045;-75
2022/05/28 07:10:32;;;;;;;3.47;2.58;;;;;;;;;;1597937;90;21067;-76
2022/05/28 07:13:02;;;;;;;3.58;2.70;;;;;;;;;;1598134;90;21583;-76
2022/05/28 07:15:33;;;;;;;3.80;2.50;;;;;;;;;;1598189;90;21128;-76
2022/05/28 07:17:59;;;;;;;3.00;2.50;;;;;;;;;;1598097;90;21586;-76
2022/05/28 07:20:25;;;;;;;3.98;2.50;;;;;;;;;;1597861;88;21076;-75
2022/05/28 07:22:51;;;;;;;3.80;2.22;;;;;;;;;;1581968;91;21090;-75
2022/05/28 07:25:18;;;;;;;3.77;2.20;;;;;;;;;;1581855;91;21066;-76
2022/05/28 07:27:45;;;;;;;4.20;2.20;;;;;;;;;;1581960;91;21623;-76
2022/05/28 07:30:11;;;;;;;3.45;2.33;;;;;;;;;;1581903;90;21042;-75
2022/05/28 07:32:38;;;;;;;4.28;2.50;;;;;;;;;;1581860;91;21054;-76
2022/05/28 07:35:04;;;;;;;4.28;2.15;;;;;;;;;;1582076;91;21500;-77
2022/05/28 07:37:31;;;;;;;3.37;2.50;;;;;;;;;;1582043;91;21569;-77
2022/05/28 07:39:58;;;;;;;3.83;2.33;;;;;;;;;;1582062;91;21125;-77
2022/05/28 07:42:26;;;;;;;2.65;2.10;;;;;;;;;;1581940;90;21085;-77
2022/05/28 07:44:54;;;;;;;3.80;2.20;;;;;;;;;;1581973;91;21073;-76
2022/05/28 07:47:20;;;;;;;5.65;2.17;;;;;;;;;;1582000;91;21095;-75
2022/05/28 07:49:47;;;;;;;2.47;2.10;;;;;;;;;;1581649;91;21121;-76
2022/05/28 07:52:13;;;;;;;4.47;2.65;;;;;;;;;;1582076;91;21042;-76
2022/05/28 07:54:39;;;;;;;3.22;2.17;;;;;;;;;;1572592;91;21130;-77
2022/05/28 07:57:06;;;;;;;3.27;2.33;;;;;;;;;;1596475;90;21625;-75
2022/05/28 07:59:32;;;;;;;3.10;2.20;;;;;;;;;;1596679;90;21081;-76
2022/05/28 08:01:58;;;;;;;3.15;2.40;;;;;;;;;;1596327;90;21081;-76
2022/05/28 08:04:24;;;;;;;3.10;2.15;;;;;;;;;;1596224;88;21105;-76
2022/05/28 08:06:50;;;;;;;4.45;2.25;;;;;;;;;;1596164;90;21592;-76
2022/05/28 08:09:17;;;;;;;3.17;2.27;;;;;;;;;;1596326;90;21109;-77
2022/05/28 08:11:44;;;;;;;4.72;2.33;;;;;;;;;;1597824;89;21082;-76
2022/05/28 08:14:11;;;;;;;3.30;2.25;;;;;;;;;;1646555;86;21520;-77
2022/05/28 08:16:38;;;;;;;3.05;2.40;;;;;;;;;;1601101;90;21118;-76
2022/05/28 08:19:04;;;;;;;4.28;2.10;;;;;;;;;;1616623;87;21030;-76
2022/05/28 08:24:15;;;;;;;3.52;2.40;;;;;;;;;;1621383;88;21568;-76
2022/05/28 08:26:43;;;;;;;2.87;2.25;;;;;;;;;;1621332;88;21105;-77
2022/05/28 08:29:11;;;;;;;3.17;2.25;;;;;;;;;;1578489;89;21086;-76
2022/05/28 08:31:38;;;;;;;3.98;2.20;;;;;;;;;;1574946;91;21565;-75
2022/05/28 08:34:04;;;;;;;4.17;2.47;;;;;;;;;;1614258;89;21037;-77
2022/05/28 08:36:31;;;;;;;4.03;2.25;;;;;;;;;;1614229;89;21150;-75
2022/05/28 08:38:57;;;;;;;3.75;2.08;;;;;;;;;;1614721;88;21171;-76
2022/05/28 08:41:25;;;;;;;3.08;2.30;;;;;;;;;;1614210;89;21582;-77
2022/05/28 08:43:53;;;;;;;3.95;2.10;;;;;;;;;;1615630;88;21604;-75
2022/05/28 08:46:19;;;;;;;3.05;2.05;;;;;;;;;;1621065;88;21114;-76
2022/05/28 08:48:48;;;;;;;5.45;2.20;;;;;;;;;;1619819;88;21160;-77
2022/05/28 08:51:16;;;;;;;2.60;2.00;;;;;;;;;;1618306;88;21023;-77
2022/05/28 08:53:49;;;;;;;3.10;2.08;;;;;;;;;;1637111;87;21585;-78
2022/05/28 08:56:18;;;;;;;3.42;1.90;;;;;;;;;;1646392;87;21125;-76
2022/05/28 08:58:45;;;;;;;2.02;1.82;;;;;;;;;;1624905;87;21030;-77
2022/05/28 09:01:13;;;;;;;5.28;1.90;;;;;;;;;;1617092;88;21125;-78
2022/05/28 09:03:54;;;;;;;3.50;1.80;;;;;;;;;;1621237;88;21099;-77
2022/05/28 09:06:22;;;;;;;3.75;2.00;;;;;;;;;;1616845;88;21094;-77
2022/05/28 09:08:49;;;;;;;3.22;1.95;;;;;;;;;;1613713;88;21081;-78
2022/05/28 09:11:19;;;;;;;3.02;1.80;;;;;;;;;;1613423;87;21102;-76
2022/05/28 09:13:46;;;;;;;6.30;2.05;;;;;;;;;;1605864;89;21113;-76
2022/05/28 09:16:14;;;;;;;2.55;1.90;;;;;;;;;;1613970;89;21070;-77
2022/05/28 09:18:41;;;;;;;3.12;1.70;;;;;;;;;;1613738;89;21157;-78
2022/05/28 09:21:07;;;;;;;3.45;1.80;;;;;;;;;;1613369;89;21542;-76
2022/05/28 09:23:40;;;;;;;4.53;2.00;;;;;;;;;;1610484;89;21094;-77
2022/05/28 09:26:06;;;;;;;3.20;1.67;;;;;;;;;;1610559;89;21082;-76
2022/05/28 09:28:43;;;;;;;4.60;2.10;;;;;;;;;;1610581;89;21101;-76
2022/05/28 09:31:17;;;;;;;3.60;1.92;;;;;;;;;;1610697;89;21089;-80
2022/05/28 09:34:06;;;;;;;2.95;1.77;;;;;;;;;;1610258;89;21114;-78
2022/05/28 09:36:35;;;;;;;5.70;1.98;;;;;;;;;;1610492;89;21038;-80
2022/05/28 09:39:04;;;;;;;4.22;1.90;;;;;;;;;;1610436;89;21608;-77
2022/05/28 09:41:41;;;;;;;3.47;1.62;;;;;;;;;;1610504;89;21590;-77
2022/05/28 09:44:16;;;;;;;3.58;1.77;;;;;;;;;;1610538;88;21565;-76
2022/05/28 09:46:43;;;;;;;3.05;1.80;;;;;;;;;;1609649;89;21164;-78
2022/05/28 09:49:15;;;;;;;2.67;1.77;;;;;;;;;;1610236;89;21050;-77
2022/05/28 09:51:53;;;;;;;2.90;1.95;;;;;;;;;;1611932;89;21530;-79
2022/05/28 09:54:21;;;;;;;2.15;1.87;;;;;;;;;;1613639;88;21027;-79
2022/05/28 09:56:58;;;;;;;3.37;1.80;;;;;;;;;;1608711;89;21565;-79
2022/05/28 09:59:32;;;;;;;2.10;1.85;;;;;;;;;;1615097;89;21115;-80
2022/05/28 10:02:00;;;;;;;3.57;1.97;;;;;;;;;;1615882;89;21110;-82
2022/05/28 10:04:29;;;;;;;3.70;2.10;;;;;;;;;;1614080;89;21089;-81
2022/05/28 10:06:56;;;;;;;3.95;1.80;;;;;;;;;;1616102;88;21568;-82
2022/05/28 10:09:24;;;;;;;2.60;1.77;;;;;;;;;;1616297;88;21097;-84
2022/05/28 10:12:01;;;;;;;4.33;1.92;;;;;;;;;;1633261;87;21030;-78
2022/05/28 10:14:30;;;;;;;3.33;1.90;;;;;;;;;;1637738;87;21077;-77
2022/05/28 10:16:57;;;;;;;3.90;2.00;;;;;;;;;;1632244;87;21033;-78
2022/05/28 10:19:31;;;;;;;3.02;2.00;;;;;;;;;;1616488;89;21102;-77
2022/05/28 10:21:59;;;;;;;5.20;1.98;;;;;;;;;;1615490;88;21114;-76
2022/05/28 10:24:26;;;;;;;3.58;1.65;;;;;;;;;;1609227;89;21616;-78
2022/05/28 10:26:52;;;;;;;3.15;2.00;;;;;;;;;;1605446;89;21066;-77
2022/05/28 10:29:20;;;;;;;3.52;1.87;;;;;;;;;;1609748;89;21054;-79
2022/05/28 10:31:47;;;;;;;2.85;1.80;;;;;;;;;;1608036;89;21030;-77
2022/05/28 10:34:30;;;;;;;3.98;1.95;;;;;;;;;;1605660;89;21122;-76
2022/05/28 10:37:10;;;;;;;2.75;1.90;;;;;;;;;;1605965;89;21038;-78
2022/05/28 10:39:37;;;;;;;2.12;1.90;;;;;;;;;;1573218;89;21116;-78
2022/05/28 10:43:36;;;;;;;2.72;2.00;;;;;;;;;;1794804;79;22564;-76
2022/05/28 10:46:11;;;;;;;3.80;2.60;;;;;;;;;;1761691;81;21057;-77
2022/05/28 10:48:48;;;;;;;6.28;2.10;;;;;;;;;;1758304;80;21570;-77
2022/05/28 10:51:21;;;;;;;3.50;1.82;;;;;;;;;;1746769;81;20997;-77
2022/05/28 10:53:48;;;;;;;;;;;;;;;;;;1763278;81;21068;-79
2022/05/28 10:56:19;;;;;;;3.10;1.90;;;;;;;;;;1772368;80;20132;-77
2022/05/28 10:58:48;;;;;;;2.52;1.80;;;;;;;;;;1761189;81;21044;-83
2022/05/28 11:01:17;;;;;;;4.30;1.82;;;;;;;;;;1756649;81;21523;-82
2022/05/28 11:03:51;;;;;;;1.72;1.50;;;;;;;;;;1697697;83;21627;-81
2022/05/28 11:06:36;;;;;;;3.27;1.85;;;;;;;;;;1726317;83;21095;-80
2022/05/28 11:09:10;;;;;;;2.30;1.80;;;;;;;;;;1726740;83;21080;-79
2022/05/28 11:11:47;;;;;;;2.02;1.57;;;;;;;;;;1726466;83;21021;-81
2022/05/28 11:14:18;;;;;;;5.10;2.30;;;;;;;;;;1726181;83;21544;-81
2022/05/28 11:16:47;;;;;;;3.12;1.95;;;;;;;;;;1728483;81;21087;-81
2022/05/28 11:19:25;;;;;;;3.95;1.92;;;;;;;;;;1726503;83;21045;-81
2022/05/28 11:21:57;;;;;;;4.10;1.92;;;;;;;;;;1725893;83;21040;-80
2022/05/28 11:24:39;;;;;;;4.25;2.00;;;;;;;;;;1715252;83;21167;-80
2022/05/28 11:27:17;;;;;;;3.70;1.90;;;;;;;;;;1626972;83;20989;-79
2022/05/28 11:29:56;;;;;;;3.17;2.12;;;;;;;;;;1728378;83;21062;-80
2022/05/28 11:32:24;;;;;;;2.27;2.08;;;;;;;;;;1691859;85;21606;-80
2022/05/28 11:35:06;;;;;;;2.75;2.12;;;;;;;;;;1683575;84;21072;-79
2022/05/28 11:37:34;;;;;;;5.83;2.02;;;;;;;;;;1660031;86;21052;-76
2022/05/28 11:40:05;;;;;;;3.90;1.85;;;;;;;;;;1671279;86;21035;-75
2022/05/28 11:42:51;;;;;;;3.75;2.17;;;;;;;;;;1652010;86;21148;-75
2022/05/28 11:45:20;;;;;;;2.27;1.70;;;;;;;;;;1692063;84;21057;-77
2022/05/28 11:47:53;;;;;;;2.27;1.70;;;;;;;;;;1713323;83;21024;-77
2022/05/28 11:53:15;;;;;;;2.80;1.75;;;;;;;;;;1713085;84;21084;-79
2022/05/28 11:55:44;;;;;;;2.72;1.77;;;;;;;;;;1713074;83;21321;-78
2022/05/28 11:58:15;;;;;;;2.65;2.00;;;;;;;;;;1712846;84;21104;-79
2022/05/28 12:00:41;;;;;;;3.50;1.90;;;;;;;;;;1712860;83;21548;-79
2022/05/28 12:03:17;;;;;;;4.78;1.92;;;;;;;;;;1712172;82;21607;-79
2022/05/28 12:05:48;;;;;;;2.58;1.85;;;;;;;;;;1716465;82;21070;-76
2022/05/28 12:08:18;;;;;;;6.87;1.90;;;;;;;;;;1676199;85;21060;-74
2022/05/28 12:10:50;;;;;;;3.08;1.70;;;;;;;;;;1718518;82;21051;-75
2022/05/28 12:13:30;;;;;;;2.92;1.80;;;;;;;;;;1677193;85;21073;-74
2022/05/28 12:15:56;;;;;;;2.92;1.70;;;;;;;;;;1713988;82;21510;-75
2022/05/28 12:18:26;;;;;;;3.70;1.90;;;;;;;;;;1716915;83;21049;-79
2022/05/28 12:20:58;;;;;;;3.27;2.08;;;;;;;;;;1715000;83;21065;-82
2022/05/28 12:23:34;;;;;;;3.72;1.80;;;;;;;;;;1731551;79;21110;-83
2022/05/28 12:26:03;;;;;;;3.37;1.80;;;;;;;;;;1720935;83;21260;-84
2022/05/28 12:28:33;;;;;;;2.47;1.70;;;;;;;;;;1694837;83;21077;-77
2022/05/28 12:31:02;;;;;;;3.27;1.90;;;;;;;;;;1719024;83;21112;-84
2022/05/28 12:33:34;;;;;;;2.72;1.70;;;;;;;;;;1709430;83;21031;-76
2022/05/28 12:36:02;;;;;;;3.42;1.90;;;;;;;;;;1707424;83;21058;-84
2022/05/28 12:38:40;;;;;;;3.15;1.80;;;;;;;;;;1715915;83;21124;-77
2022/05/28 12:41:08;;;;;;;3.17;1.70;;;;;;;;;;1719372;82;21062;-77
2022/05/28 12:43:35;;;;;;;2.70;1.55;;;;;;;;;;1715818;83;21055;-80
2022/05/28 12:46:15;;;;;;;3.33;1.60;;;;;;;;;;1714048;82;21027;-79
2022/05/28 12:48:42;;;;;;;2.83;1.80;;;;;;;;;;1708025;83;21078;-75
2022/05/28 12:51:10;;;;;;;3.52;1.80;;;;;;;;;;1705386;83;20977;-82
2022/05/28 12:53:38;;;;;;;2.52;1.67;;;;;;;;;;1706915;84;21051;-80
2022/05/28 12:56:06;;;;;;;2.55;1.67;;;;;;;;;;1672611;86;21083;-80
2022/05/28 12:58:36;;;;;;;2.52;1.65;;;;;;;;;;1668849;85;21080;-82
2022/05/28 13:01:06;;;;;;;2.00;1.57;;;;;;;;;;1674666;86;21032;-89
2022/05/28 13:03:33;;;;;;;3.95;1.62;;;;;;;;;;1670668;84;21078;-79
2022/05/28 13:06:03;;;;;;;2.02;1.50;;;;;;;;;;1670742;86;21071;-77
2022/05/28 13:08:30;;;;;;;3.00;1.80;;;;;;;;;;1718646;83;21054;-79
2022/05/28 13:10:57;;;;;;;6.55;1.80;;;;;;;;;;1699731;83;21110;-78
2022/05/28 13:13:43;;;;;;;2.65;1.60;;;;;;;;;;1663584;86;21633;-75
2022/05/28 13:16:28;;;;;;;3.02;2.05;;;;;;;;;;1710088;82;21079;-76
2022/05/28 13:19:16;;;;;;;2.40;1.67;;;;;;;;;;1715899;83;21087;-77
2022/05/28 13:21:59;;;;;;;2.67;1.70;;;;;;;;;;1704060;83;22154;-76
2022/05/28 13:24:39;;;;;;;2.80;1.77;;;;;;;;;;1690000;84;21120;-76
2022/05/28 13:27:07;;;;;;;4.58;1.77;;;;;;;;;;1699286;83;21015;-77
2022/05/28 13:29:45;;;;;;;2.83;1.60;;;;;;;;;;1725079;83;21062;-77
2022/05/28 13:32:12;;;;;;;3.80;1.90;;;;;;;;;;1669940;86;21112;-76
2022/05/28 13:34:39;;;;;;;5.53;1.67;;;;;;;;;;1665646;86;21571;-78
2022/05/28 13:37:05;;;;;;;2.20;1.57;;;;;;;;;;1665729;86;21061;-77
2022/05/28 13:39:31;;;;;;;2.60;1.80;;;;;;;;;;1665964;86;21105;-77
2022/05/28 13:42:00;;;;;;;2.77;1.82;;;;;;;;;;1665140;85;21064;-76
2022/05/28 13:44:27;;;;;;;6.45;1.90;;;;;;;;;;1641752;86;21124;-76
2022/05/28 13:46:55;;;;;;;2.35;1.70;;;;;;;;;;1676861;83;21560;-79
2022/05/28 13:49:22;;;;;;;3.52;1.80;;;;;;;;;;1701534;84;21072;-76
2022/05/28 13:51:49;;;;;;;2.70;1.80;;;;;;;;;;1697139;84;21461;-76
2022/05/28 13:54:18;;;;;;;3.52;2.00;;;;;;;;;;1697752;84;21057;-81
2022/05/28 13:56:52;;;;;;;3.33;1.80;;;;;;;;;;1698224;84;21005;-82
2022/05/28 13:59:20;;;;;;;2.35;1.67;;;;;;;;;;1698293;84;21017;-82
2022/05/28 14:01:49;;;;;;;2.30;1.62;;;;;;;;;;1691170;83;21072;-81
2022/05/28 14:04:16;;;;;;;4.05;1.75;;;;;;;;;;1697950;83;21882;-81
2022/05/28 14:06:50;;;;;;;2.58;1.80;;;;;;;;;;1696219;83;21072;-80
2022/05/28 14:09:16;;;;;;;2.95;1.70;;;;;;;;;;1727591;83;21535;-83
2022/05/28 14:11:44;;;;;;;2.47;1.90;;;;;;;;;;1719255;83;21007;-81
2022/05/28 14:14:14;;;;;;;3.65;2.20;;;;;;;;;;1666851;86;21029;-87
2022/05/28 14:16:44;;;;;;;5.97;3.10;;;;;;;;;;1636637;88;21017;-85
2022/05/28 14:19:12;;;;;;;4.85;2.17;;;;;;;;;;1687251;85;21059;-80
2022/05/28 14:21:39;;;;;;;10.18;5.33;;;;;;;;;;1691403;85;21055;-79
2022/05/28 14:24:16;;;;;;;13.03;7.55;;;;;;;;;;1664778;84;21116;-82
2022/05/28 14:26:42;;;;;;;11.63;6.85;;;;;;;;;;1668476;86;21571;-82
2022/05/28 14:29:08;;;;;;;3.98;2.42;;;;;;;;;;1668322;86;21074;-77
2022/05/28 14:31:37;;;;;;;3.17;2.02;;;;;;;;;;1666967;85;21133;-79
2022/05/28 14:34:03;;;;;;;4.05;1.80;;;;;;;;;;1667331;86;21164;-79
2022/05/28 14:36:37;;;;;;;4.47;1.75;;;;;;;;;;1658408;84;21014;-81
2022/05/28 14:39:16;;;;;;;2.67;1.80;;;;;;;;;;1666098;85;21056;-80
2022/05/28 14:41:44;;;;;;;4.85;2.50;;;;;;;;;;1655164;85;21059;-81
2022/05/28 14:44:14;;;;;;;2.80;1.90;;;;;;;;;;1654922;86;21030;-81
2022/05/28 14:46:40;;;;;;;5.70;2.42;;;;;;;;;;1694405;84;21007;-81
2022/05/28 14:49:08;;;;;;;2.50;1.77;;;;;;;;;;1666247;86;22105;-86
2022/05/28 14:51:38;;;;;;;4.20;2.20;;;;;;;;;;1634798;88;21616;-84
2022/05/28 14:54:04;;;;;;;7.25;2.17;;;;;;;;;;1666629;86;21064;-84
2022/05/28 14:56:33;;;;;;;3.92;2.40;;;;;;;;;;1636259;88;21600;-86
2022/05/28 14:59:00;;;;;;;3.37;2.02;;;;;;;;;;1659728;86;21035;-85
2022/05/28 15:01:28;;;;;;;3.72;2.00;;;;;;;;;;1660235;86;21142;-88
2022/05/28 15:03:56;;;;;;;3.87;2.00;;;;;;;;;;1660962;85;21055;-78
2022/05/28 15:06:23;;;;;;;2.60;1.80;;;;;;;;;;1660012;86;21523;-81